Time;durP1;ratioP1;P1;durP2;ratioP2;P2;SDS_P1;SDS_P2;PMS_P1;PMS_P2;Temp;Humidity;BMP_temperature;BMP_pressure;BME280_temperature;BME280_humidity;BME280_pressure;Samples;Min_cycle;Max_cycle;Signal;HPM_P1;HPM_P2
2023/07/03 00:00:33;;;;;;;15.47;10.30;;;16.00;99.90;;;;;;4970333;28;20184;-43
2023/07/03 00:02:59;;;;;;;21.03;11.83;;;15.90;99.90;;;;;;4993718;28;20184;-43
2023/07/03 00:05:25;;;;;;;21.20;11.90;;;15.80;99.90;;;;;;4978054;28;20215;-42
2023/07/03 00:07:51;;;;;;;17.53;11.13;;;15.70;99.90;;;;;;4983117;28;20218;-43
2023/07/03 00:10:17;;;;;;;18.87;11.07;;;15.80;99.90;;;;;;4996184;28;20212;-42
2023/07/03 00:12:44;;;;;;;17.73;11.63;;;15.70;99.90;;;;;;4971390;28;20211;-43
2023/07/03 00:15:10;;;;;;;18.70;11.57;;;15.60;99.90;;;;;;4994105;28;20184;-43
2023/07/03 00:17:39;;;;;;;19.03;11.83;;;15.40;99.90;;;;;;4987755;28;20227;-42
2023/07/03 00:20:07;;;;;;;21.20;12.27;;;15.30;99.90;;;;;;4989871;28;20169;-42
2023/07/03 00:22:33;;;;;;;18.70;12.27;;;15.30;99.90;;;;;;5017424;28;20232;-43
2023/07/03 00:24:59;;;;;;;22.80;12.30;;;15.30;99.90;;;;;;4980655;28;20175;-42
2023/07/03 00:27:25;;;;;;;16.27;11.77;;;15.20;99.90;;;;;;4981489;28;20211;-42
2023/07/03 00:29:51;;;;;;;20.80;11.70;;;15.20;99.90;;;;;;4977130;28;20254;-43
2023/07/03 00:32:16;;;;;;;18.63;11.67;;;15.30;99.90;;;;;;4966146;28;20195;-43
2023/07/03 00:34:42;;;;;;;18.93;12.17;;;15.40;99.90;;;;;;4999046;28;20266;-43
2023/07/03 00:37:08;;;;;;;19.87;12.17;;;15.30;99.90;;;;;;4984042;28;20219;-43
2023/07/03 00:39:34;;;;;;;19.23;12.50;;;15.20;99.90;;;;;;4980772;28;20263;-43
2023/07/03 00:42:00;;;;;;;17.50;11.60;;;15.20;99.90;;;;;;4977299;28;20176;-43
2023/07/03 00:44:25;;;;;;;18.70;11.70;;;15.20;99.90;;;;;;4977589;28;20176;-36
2023/07/03 00:46:51;;;;;;;20.83;12.67;;;15.20;99.90;;;;;;5002881;28;20176;-43
2023/07/03 00:49:20;;;;;;;19.97;13.03;;;15.20;99.90;;;;;;4976810;28;20212;-43
2023/07/03 00:51:53;;;;;;;20.33;11.87;;;15.30;99.90;;;;;;4968852;28;20172;-43
2023/07/03 00:54:19;;;;;;;19.47;12.47;;;15.30;99.90;;;;;;4982095;28;20175;-43
2023/07/03 00:56:45;;;;;;;16.80;11.33;;;15.30;99.90;;;;;;4980854;28;20173;-43
2023/07/03 00:59:11;;;;;;;17.87;12.30;;;15.20;99.90;;;;;;4984867;28;20247;-43
2023/07/03 01:01:48;;;;;;;19.90;12.23;;;15.20;99.90;;;;;;4976602;28;20226;-40
2023/07/03 01:04:20;;;;;;;21.83;12.47;;;15.20;99.90;;;;;;4983213;28;20215;-42
2023/07/03 01:06:51;;;;;;;19.50;12.67;;;15.10;99.90;;;;;;4962893;28;20227;-42
2023/07/03 01:09:20;;;;;;;21.83;12.30;;;15.10;99.90;;;;;;4977293;28;20207;-42
2023/07/03 01:11:47;;;;;;;20.57;12.33;;;15.20;99.90;;;;;;4974247;28;20175;-42
2023/07/03 01:14:17;;;;;;;23.00;13.33;;;15.20;99.90;;;;;;4990022;28;20187;-43
2023/07/03 01:16:46;;;;;;;20.47;12.13;;;15.20;99.90;;;;;;4966091;28;20235;-41
2023/07/03 01:19:18;;;;;;;20.80;11.87;;;15.10;99.90;;;;;;4988672;28;20234;-42
2023/07/03 01:21:54;;;;;;;21.80;12.97;;;15.10;99.90;;;;;;4991177;28;20198;-42
2023/07/03 01:24:41;;;;;;;20.67;12.27;;;15.00;99.90;;;;;;5001195;28;20183;-42
2023/07/03 01:27:10;;;;;;;18.93;11.70;;;15.00;99.90;;;;;;4965996;28;20214;-41
2023/07/03 01:29:40;;;;;;;22.30;11.80;;;15.00;99.90;;;;;;4973115;28;20208;-42
2023/07/03 01:32:09;;;;;;;19.60;12.57;;;15.00;99.90;;;;;;5010286;28;20183;-42
2023/07/03 01:34:45;;;;;;;16.43;12.00;;;15.10;99.90;;;;;;4993783;28;20188;-42
2023/07/03 01:37:13;;;;;;;19.63;12.10;;;15.10;99.90;;;;;;5011152;28;20221;-43
2023/07/03 01:39:43;;;;;;;17.80;11.80;;;15.10;99.90;;;;;;4976848;28;20215;-42
2023/07/03 01:42:10;;;;;;;19.03;12.60;;;15.10;99.90;;;;;;4974294;28;20183;-42
2023/07/03 01:44:37;;;;;;;17.83;11.90;;;15.00;99.90;;;;;;4974077;28;20191;-39
2023/07/03 01:47:06;;;;;;;22.63;12.60;;;15.10;99.90;;;;;;4970518;28;20234;-42
2023/07/03 01:49:32;;;;;;;21.13;12.63;;;15.10;99.90;;;;;;4986011;28;20208;-42
2023/07/03 01:52:04;;;;;;;22.77;12.27;;;15.10;99.90;;;;;;4972373;28;20180;-41
2023/07/03 01:54:55;;;;;;;20.13;12.10;;;15.20;99.90;;;;;;4984281;28;20214;-40
2023/07/03 01:57:28;;;;;;;17.00;12.30;;;15.20;99.90;;;;;;4989249;28;20214;-41
2023/07/03 01:59:55;;;;;;;18.83;12.67;;;15.30;99.90;;;;;;4985018;28;20192;-40
2023/07/03 02:02:28;;;;;;;22.70;11.90;;;15.30;99.90;;;;;;4979577;28;20191;-42
2023/07/03 02:05:22;;;;;;;22.33;13.00;;;15.20;99.90;;;;;;4972856;28;20183;-36
2023/07/03 02:07:52;;;;;;;20.07;12.50;;;15.30;99.90;;;;;;4971616;28;20208;-43
2023/07/03 02:10:18;;;;;;;23.67;13.07;;;15.20;99.90;;;;;;4976708;28;20176;-43
2023/07/03 02:12:46;;;;;;;19.77;12.43;;;15.20;99.90;;;;;;4973454;28;20188;-42
2023/07/03 02:15:15;;;;;;;18.77;11.67;;;15.10;99.90;;;;;;4975305;28;20207;-42
2023/07/03 02:17:42;;;;;;;21.60;12.63;;;15.10;99.90;;;;;;4979002;28;20199;-42
2023/07/03 02:20:14;;;;;;;19.37;12.17;;;15.10;99.90;;;;;;4971655;28;20184;-43
2023/07/03 02:22:41;;;;;;;20.37;11.83;;;15.10;99.90;;;;;;4965873;28;20185;-41
2023/07/03 02:25:09;;;;;;;22.70;12.63;;;15.00;99.90;;;;;;4973978;28;20176;-42
2023/07/03 02:27:34;;;;;;;20.50;11.83;;;15.10;99.90;;;;;;4973456;28;20207;-42
2023/07/03 02:30:01;;;;;;;19.87;12.50;;;15.00;99.90;;;;;;4978519;28;20207;-41
2023/07/03 02:32:35;;;;;;;17.87;11.80;;;15.00;99.90;;;;;;5001676;28;20179;-41
2023/07/03 02:35:01;;;;;;;22.17;12.53;;;15.00;99.90;;;;;;4988106;28;20267;-41
2023/07/03 02:37:27;;;;;;;16.47;11.57;;;15.00;99.90;;;;;;4964620;28;20275;-43
2023/07/03 02:39:54;;;;;;;17.87;11.50;;;15.00;99.90;;;;;;4971566;28;20193;-41
2023/07/03 02:42:19;;;;;;;20.13;12.93;;;15.00;99.90;;;;;;4967787;28;20199;-43
2023/07/03 02:44:46;;;;;;;21.10;11.40;;;15.00;99.90;;;;;;4975602;28;20188;-41
2023/07/03 02:47:12;;;;;;;17.47;12.77;;;15.00;99.90;;;;;;4984675;28;20203;-43
2023/07/03 02:49:38;;;;;;;18.67;11.80;;;15.00;99.90;;;;;;4993995;28;20211;-43
2023/07/03 02:52:06;;;;;;;15.93;11.83;;;15.00;99.90;;;;;;4992227;28;20180;-43
2023/07/03 02:54:33;;;;;;;20.67;12.97;;;15.00;99.90;;;;;;4977628;28;20188;-42
2023/07/03 02:57:00;;;;;;;18.17;12.70;;;15.00;99.90;;;;;;4973500;28;20206;-41
2023/07/03 02:59:26;;;;;;;19.60;11.93;;;15.10;99.90;;;;;;4978458;28;20278;-43
2023/07/03 03:01:53;;;;;;;19.43;11.57;;;15.10;99.90;;;;;;4992289;28;20222;-42
2023/07/03 03:04:19;;;;;;;18.40;12.30;;;15.10;99.90;;;;;;4977267;28;20215;-42
2023/07/03 03:06:45;;;;;;;19.93;12.07;;;15.10;99.90;;;;;;4961646;28;20216;-43
2023/07/03 03:09:11;;;;;;;18.03;12.33;;;15.20;99.90;;;;;;5003627;28;20204;-40
2023/07/03 03:11:37;;;;;;;18.00;12.00;;;15.20;99.90;;;;;;4986036;28;20185;-43
2023/07/03 03:14:05;;;;;;;18.53;12.10;;;15.30;99.90;;;;;;4986676;28;20181;-43
2023/07/03 03:16:33;;;;;;;15.70;11.30;;;15.30;99.90;;;;;;5009453;28;20179;-42
2023/07/03 03:18:59;;;;;;;18.63;11.13;;;15.30;99.90;;;;;;5011449;28;20190;-43
2023/07/03 03:21:26;;;;;;;17.90;12.23;;;15.30;99.90;;;;;;4994729;28;20195;-41
2023/07/03 03:23:52;;;;;;;19.63;12.07;;;15.40;99.90;;;;;;4992573;28;20187;-40
2023/07/03 03:26:18;;;;;;;15.77;11.30;;;15.40;99.90;;;;;;4976385;28;20238;-42
2023/07/03 03:28:43;;;;;;;23.33;12.47;;;15.40;99.90;;;;;;4990901;28;20215;-42
2023/07/03 03:31:10;;;;;;;18.83;12.10;;;15.40;99.90;;;;;;4980270;28;20180;-40
2023/07/03 03:33:41;;;;;;;18.43;11.53;;;15.40;99.90;;;;;;4995055;28;20219;-38
2023/07/03 03:36:07;;;;;;;17.80;11.40;;;15.40;99.90;;;;;;4972827;28;20183;-43
2023/07/03 03:38:33;;;;;;;19.13;11.37;;;15.40;99.90;;;;;;4980662;28;20215;-43
2023/07/03 03:41:01;;;;;;;20.07;11.77;;;15.40;99.90;;;;;;4992535;28;20210;-43
2023/07/03 03:43:32;;;;;;;17.40;10.90;;;15.50;99.90;;;;;;5002392;28;20201;-43
2023/07/03 03:46:01;;;;;;;18.07;11.87;;;15.50;99.90;;;;;;4996901;28;20191;-42
2023/07/03 03:48:30;;;;;;;16.67;11.60;;;15.50;99.90;;;;;;4996417;28;20230;-40
2023/07/03 03:50:57;;;;;;;15.30;11.37;;;15.60;99.90;;;;;;4975902;28;20268;-41
2023/07/03 03:53:23;;;;;;;17.37;11.20;;;15.60;99.90;;;;;;4994257;28;20227;-42
2023/07/03 03:55:51;;;;;;;18.87;11.47;;;15.60;99.90;;;;;;5001428;28;20304;-42
2023/07/03 03:58:18;;;;;;;18.17;11.50;;;15.70;99.90;;;;;;4989996;28;20208;-42
2023/07/03 04:00:44;;;;;;;18.10;11.83;;;15.70;99.90;;;;;;4975061;28;20195;-43
2023/07/03 04:03:10;;;;;;;17.73;11.77;;;15.80;99.90;;;;;;4983834;28;20187;-43
2023/07/03 04:05:37;;;;;;;19.97;11.80;;;15.70;99.90;;;;;;4978752;28;20195;-38
2023/07/03 04:08:03;;;;;;;15.53;10.67;;;15.70;99.90;;;;;;4980146;28;20219;-41
2023/07/03 04:10:28;;;;;;;18.93;10.97;;;15.70;99.90;;;;;;4963562;28;20231;-42
2023/07/03 04:12:54;;;;;;;16.17;11.27;;;15.70;99.90;;;;;;4969060;28;20279;-43
2023/07/03 04:15:23;;;;;;;18.53;11.83;;;15.80;99.90;;;;;;4996337;28;20683;-41
2023/07/03 04:17:49;;;;;;;17.07;10.90;;;15.80;99.90;;;;;;4986212;28;20196;-42
2023/07/03 04:20:15;;;;;;;18.60;11.77;;;15.80;99.90;;;;;;4978326;28;20469;-42
2023/07/03 04:22:41;;;;;;;16.60;11.53;;;15.90;99.90;;;;;;4976640;28;20259;-39
2023/07/03 04:25:08;;;;;;;19.00;11.70;;;15.90;99.90;;;;;;5006808;28;20184;-43
2023/07/03 04:27:36;;;;;;;18.17;11.40;;;16.00;99.90;;;;;;5001405;28;20204;-43
2023/07/03 04:30:04;;;;;;;16.17;10.67;;;16.00;99.90;;;;;;4976164;28;20212;-42
2023/07/03 04:32:30;;;;;;;16.97;10.63;;;16.10;99.90;;;;;;4965941;28;20176;-40
2023/07/03 04:34:57;;;;;;;16.43;10.53;;;16.10;99.90;;;;;;4971441;28;20187;-43
2023/07/03 04:37:26;;;;;;;15.43;10.13;;;16.10;99.90;;;;;;4999271;28;20243;-43
2023/07/03 04:39:53;;;;;;;17.87;10.53;;;16.10;99.90;;;;;;5002583;28;20192;-41
2023/07/03 04:42:20;;;;;;;18.17;11.23;;;16.10;99.90;;;;;;4974906;28;20192;-43
2023/07/03 04:44:48;;;;;;;19.73;11.17;;;16.10;99.90;;;;;;4973814;28;20191;-43
2023/07/03 04:47:18;;;;;;;17.63;11.43;;;16.10;99.90;;;;;;4990838;28;20214;-42
2023/07/03 04:49:45;;;;;;;16.83;11.10;;;16.10;99.90;;;;;;4987318;28;20207;-42
2023/07/03 04:52:13;;;;;;;17.00;10.53;;;16.20;99.90;;;;;;4985221;28;20200;-41
2023/07/03 04:54:46;;;;;;;19.40;11.50;;;16.20;99.90;;;;;;4975906;28;20177;-42
2023/07/03 04:57:21;;;;;;;15.33;9.80;;;16.30;99.90;;;;;;4987194;28;20292;-40
2023/07/03 04:59:49;;;;;;;14.60;9.70;;;16.30;99.90;;;;;;5005278;28;20203;-42
2023/07/03 05:02:18;;;;;;;15.57;10.20;;;16.30;99.90;;;;;;4986901;28;20203;-42
2023/07/03 05:04:52;;;;;;;17.57;10.40;;;16.40;99.90;;;;;;4986191;28;20640;-43
2023/07/03 05:07:22;;;;;;;16.07;9.70;;;16.50;99.90;;;;;;4980121;28;20203;-41
2023/07/03 05:09:49;;;;;;;16.43;10.67;;;16.50;99.90;;;;;;4989438;28;20211;-43
2023/07/03 05:12:16;;;;;;;15.30;10.20;;;16.60;99.90;;;;;;4974262;28;20196;-43
2023/07/03 05:14:44;;;;;;;15.27;9.90;;;16.60;99.90;;;;;;4972380;28;20182;-40
2023/07/03 05:17:13;;;;;;;14.50;9.50;;;16.70;99.90;;;;;;4983044;28;20204;-41
2023/07/03 05:19:40;;;;;;;13.53;8.93;;;16.80;99.90;;;;;;4972888;28;20263;-42
2023/07/03 05:22:08;;;;;;;14.87;9.70;;;16.80;99.90;;;;;;4989459;28;20242;-42
2023/07/03 05:24:35;;;;;;;13.17;9.03;;;16.80;99.90;;;;;;4990374;28;20204;-43
2023/07/03 05:27:01;;;;;;;14.27;9.77;;;16.90;99.90;;;;;;4989645;28;20207;-42
2023/07/03 05:29:28;;;;;;;17.98;9.45;;;17.00;99.90;;;;;;4980481;28;20206;-41
2023/07/03 05:31:54;;;;;;;13.37;9.17;;;17.00;99.90;;;;;;4973488;28;20202;-42
2023/07/03 05:34:20;;;;;;;16.00;9.50;;;17.00;99.90;;;;;;4983400;28;20184;-41
2023/07/03 05:36:47;;;;;;;15.35;9.20;;;17.10;99.90;;;;;;4986330;28;20183;-41
2023/07/03 05:39:14;;;;;;;16.92;8.82;;;17.10;99.90;;;;;;4992055;28;20204;-41
2023/07/03 05:41:40;;;;;;;14.57;9.40;;;17.10;99.90;;;;;;4973917;28;20176;-43
2023/07/03 05:44:07;;;;;;;18.03;9.37;;;17.20;99.90;;;;;;4972206;28;20676;-42
2023/07/03 05:46:34;;;;;;;15.05;9.05;;;17.30;99.90;;;;;;4973493;28;20200;-42
2023/07/03 05:49:00;;;;;;;15.30;8.68;;;17.30;99.90;;;;;;4972812;28;20332;-41
2023/07/03 05:51:26;;;;;;;15.10;8.70;;;17.30;99.90;;;;;;4970718;28;20176;-43
2023/07/03 05:53:53;;;;;;;16.17;8.77;;;17.40;99.90;;;;;;4990641;28;20176;-41
2023/07/03 05:56:19;;;;;;;12.73;8.20;;;17.50;99.90;;;;;;4971828;28;20176;-42
2023/07/03 05:58:46;;;;;;;11.95;8.23;;;17.50;99.90;;;;;;4971444;28;20215;-41
2023/07/03 06:01:12;;;;;;;16.05;8.57;;;17.60;99.90;;;;;;4966815;28;20224;-42
2023/07/03 06:03:43;;;;;;;15.85;8.70;;;17.60;99.90;;;;;;4969330;28;20203;-42
2023/07/03 06:06:09;;;;;;;14.55;7.95;;;17.70;99.90;;;;;;4973281;28;20195;-43
2023/07/03 06:08:38;;;;;;;13.75;7.45;;;17.80;99.90;;;;;;4975915;28;20215;-41
2023/07/03 06:11:05;;;;;;;13.45;8.27;;;17.80;99.90;;;;;;4974528;28;20250;-43
2023/07/03 06:13:31;;;;;;;11.68;8.23;;;17.90;99.90;;;;;;4990663;28;20172;-43
2023/07/03 06:15:57;;;;;;;17.08;9.13;;;18.00;99.90;;;;;;4983052;28;20184;-43
2023/07/03 06:18:23;;;;;;;11.05;7.80;;;18.10;99.90;;;;;;4972339;28;20205;-43
2023/07/03 06:20:49;;;;;;;13.73;8.40;;;18.10;99.90;;;;;;4978674;28;20238;-43
2023/07/03 06:23:16;;;;;;;13.43;7.80;;;18.20;99.90;;;;;;4968277;28;20212;-42
2023/07/03 06:25:41;;;;;;;10.88;7.38;;;18.20;99.90;;;;;;4975778;28;20245;-42
2023/07/03 06:28:07;;;;;;;11.40;7.32;;;18.20;99.90;;;;;;4976803;28;20215;-42
2023/07/03 06:30:33;;;;;;;17.08;8.63;;;18.30;99.90;;;;;;4975845;28;20183;-42
2023/07/03 06:32:59;;;;;;;15.95;7.97;;;18.40;99.90;;;;;;4978044;28;20250;-43
2023/07/03 06:35:25;;;;;;;11.27;7.68;;;18.50;99.90;;;;;;4975310;28;20191;-39
2023/07/03 06:37:58;;;;;;;14.07;7.70;;;18.60;99.90;;;;;;4995270;28;20216;-41
2023/07/03 06:40:24;;;;;;;13.65;7.80;;;18.70;99.90;;;;;;4984712;28;20183;-43
2023/07/03 06:42:52;;;;;;;12.95;8.23;;;18.70;99.90;;;;;;4984770;28;20181;-42
2023/07/03 06:45:20;;;;;;;15.10;8.07;;;18.80;99.90;;;;;;4977805;28;20262;-42
2023/07/03 06:47:46;;;;;;;12.45;7.25;;;18.80;99.90;;;;;;4975966;28;20200;-42
2023/07/03 06:50:12;;;;;;;12.35;7.35;;;18.90;99.90;;;;;;4980570;28;20226;-43
2023/07/03 06:52:41;;;;;;;14.05;7.45;;;19.00;99.90;;;;;;4982921;28;20180;-37
2023/07/03 06:55:08;;;;;;;13.43;7.57;;;19.00;99.90;;;;;;4996091;28;20194;-40
2023/07/03 06:57:35;;;;;;;12.95;7.75;;;19.00;99.90;;;;;;4999796;28;20272;-39
2023/07/03 07:00:01;;;;;;;13.82;7.65;;;19.10;99.90;;;;;;4987485;28;20188;-42
2023/07/03 07:02:29;;;;;;;13.77;7.65;;;19.20;99.90;;;;;;4982347;28;20189;-43
2023/07/03 07:04:56;;;;;;;11.27;7.30;;;19.30;99.90;;;;;;5007469;28;20238;-38
2023/07/03 07:07:25;;;;;;;11.80;7.45;;;19.40;99.90;;;;;;4997543;28;20208;-43
2023/07/03 07:09:53;;;;;;;13.68;7.65;;;19.40;99.90;;;;;;5008957;28;20211;-43
2023/07/03 07:12:23;;;;;;;16.75;8.23;;;19.50;99.90;;;;;;4976292;28;20183;-43
2023/07/03 07:14:49;;;;;;;12.57;6.95;;;19.60;99.90;;;;;;4989502;28;20208;-43
2023/07/03 07:17:15;;;;;;;13.57;6.93;;;19.70;99.90;;;;;;4971842;28;20216;-40
2023/07/03 07:19:41;;;;;;;13.98;7.75;;;19.80;99.90;;;;;;4976870;28;20176;-40
2023/07/03 07:22:07;;;;;;;14.82;7.20;;;20.00;99.90;;;;;;4975779;28;20188;-43
2023/07/03 07:24:33;;;;;;;12.98;7.15;;;20.00;99.90;;;;;;4974463;28;20188;-43
2023/07/03 07:27:00;;;;;;;12.75;7.28;;;20.00;99.90;;;;;;4991068;28;20204;-42
2023/07/03 07:29:26;;;;;;;11.15;7.60;;;20.20;99.90;;;;;;4989430;28;20208;-42
2023/07/03 07:31:56;;;;;;;10.90;6.80;;;20.50;99.90;;;;;;4976250;28;20184;-39
2023/07/03 07:34:23;;;;;;;15.02;7.28;;;20.60;99.90;;;;;;4992153;28;20223;-43
2023/07/03 07:36:49;;;;;;;14.10;7.07;;;20.70;99.90;;;;;;4997707;28;20188;-42
2023/07/03 07:39:19;;;;;;;16.00;7.43;;;20.60;99.90;;;;;;4985207;28;20233;-42
2023/07/03 07:41:46;;;;;;;11.88;6.80;;;20.50;99.90;;;;;;4991524;28;20200;-41
2023/07/03 07:44:11;;;;;;;14.95;7.50;;;20.40;99.90;;;;;;4968555;28;20219;-43
2023/07/03 07:46:37;;;;;;;12.52;7.10;;;20.20;99.90;;;;;;4972096;28;20211;-43
2023/07/03 07:49:04;;;;;;;16.52;7.53;;;20.20;99.90;;;;;;5005581;28;20266;-40
2023/07/03 07:51:30;;;;;;;16.23;7.68;;;20.20;99.90;;;;;;4992996;28;20183;-40
2023/07/03 07:53:57;;;;;;;12.00;7.40;;;20.10;99.90;;;;;;4993447;28;20188;-43
2023/07/03 07:56:24;;;;;;;13.43;7.63;;;20.00;99.90;;;;;;4991184;28;20192;-40
2023/07/03 07:58:50;;;;;;;15.50;7.60;;;20.00;99.90;;;;;;4974236;28;20216;-42
2023/07/03 08:01:17;;;;;;;15.05;7.43;;;20.00;99.90;;;;;;4980696;28;20202;-43
2023/07/03 08:03:43;;;;;;;14.60;7.03;;;20.00;99.90;;;;;;4983438;28;20195;-43
2023/07/03 08:06:10;;;;;;;14.93;7.30;;;20.20;99.90;;;;;;4980781;28;20191;-43
2023/07/03 08:08:36;;;;;;;15.48;7.65;;;20.40;99.90;;;;;;4983887;28;20216;-43
2023/07/03 08:11:04;;;;;;;12.45;7.15;;;20.50;99.90;;;;;;4981405;28;20190;-43
2023/07/03 08:13:32;;;;;;;14.77;7.03;;;20.60;99.90;;;;;;4984931;28;20203;-42
2023/07/03 08:15:58;;;;;;;15.32;6.47;;;20.70;99.90;;;;;;4983412;28;20211;-43
2023/07/03 08:18:24;;;;;;;11.52;6.50;;;20.70;99.90;;;;;;4977117;28;20208;-43
2023/07/03 08:20:50;;;;;;;14.35;7.13;;;20.60;99.90;;;;;;4969485;28;20187;-43
2023/07/03 08:23:17;;;;;;;14.10;7.13;;;20.60;99.90;;;;;;5007328;28;20188;-43
2023/07/03 08:25:43;;;;;;;13.95;6.30;;;20.60;99.90;;;;;;4975389;28;20283;-43
2023/07/03 08:28:10;;;;;;;12.57;6.50;;;20.70;99.90;;;;;;4972241;28;20212;-43
2023/07/03 08:30:36;;;;;;;11.07;6.13;;;20.90;99.90;;;;;;4971044;28;20184;-42
2023/07/03 08:33:02;;;;;;;12.40;6.43;;;21.00;99.90;;;;;;4991505;28;20199;-43
2023/07/03 08:35:28;;;;;;;11.15;6.18;;;21.30;99.90;;;;;;5000734;28;20181;-43
2023/07/03 08:37:54;;;;;;;25.17;6.22;;;21.80;99.90;;;;;;5004731;28;20211;-43
2023/07/03 08:40:22;;;;;;;11.60;6.30;;;22.10;99.90;;;;;;4975019;28;20195;-43
2023/07/03 08:42:53;;;;;;;13.63;6.32;;;22.30;99.90;;;;;;4989382;28;20214;-43
2023/07/03 08:45:39;;;;;;;15.95;6.20;;;22.30;99.90;;;;;;4976652;28;20180;-39
2023/07/03 08:48:09;;;;;;;13.02;6.00;;;22.20;99.90;;;;;;4984342;28;20199;-43
2023/07/03 08:50:36;;;;;;;10.32;5.50;;;22.10;99.90;;;;;;4997982;28;20188;-43
2023/07/03 08:53:04;;;;;;;11.68;6.20;;;22.00;99.90;;;;;;4982004;28;20184;-43
2023/07/03 08:55:35;;;;;;;10.68;5.53;;;21.80;99.90;;;;;;4971397;28;20192;-41
2023/07/03 08:58:01;;;;;;;11.18;5.75;;;21.60;99.90;;;;;;4991385;28;20714;-43
2023/07/03 09:00:32;;;;;;;11.55;6.25;;;21.70;99.90;;;;;;4977274;28;20188;-43
2023/07/03 09:03:17;;;;;;;11.48;5.63;;;21.80;99.90;;;;;;5004622;28;20209;-41
2023/07/03 09:06:15;;;;;;;11.77;6.63;;;21.90;99.90;;;;;;4977140;28;20200;-43
2023/07/03 09:09:14;;;;;;;16.02;6.28;;;22.00;99.90;;;;;;5003487;28;20208;-40
2023/07/03 09:11:47;;;;;;;10.05;5.55;;;21.90;99.90;;;;;;4974823;28;20188;-43
2023/07/03 09:14:21;;;;;;;14.15;6.57;;;22.00;99.90;;;;;;4974854;28;20184;-40
2023/07/03 09:16:47;;;;;;;13.70;6.00;;;22.10;99.90;;;;;;4981981;28;20180;-41
2023/07/03 09:19:20;;;;;;;10.75;5.82;;;22.30;99.90;;;;;;4977607;28;20202;-43
2023/07/03 09:21:50;;;;;;;15.52;6.25;;;22.50;99.90;;;;;;4976557;28;20199;-40
2023/07/03 09:24:26;;;;;;;15.80;6.10;;;22.50;99.90;;;;;;4973558;28;20192;-43
2023/07/03 09:26:58;;;;;;;9.15;5.40;;;22.60;99.90;;;;;;4973260;28;20187;-41
2023/07/03 09:29:25;;;;;;;11.48;6.18;;;22.60;99.90;;;;;;4975875;28;20211;-42
2023/07/03 09:31:53;;;;;;;14.13;6.03;;;22.70;99.90;;;;;;4978073;28;20192;-43
2023/07/03 09:34:19;;;;;;;11.70;6.10;;;22.80;99.90;;;;;;4970488;28;20185;-43
2023/07/03 09:36:57;;;;;;;12.27;5.97;;;22.80;99.90;;;;;;4959915;28;20189;-42
2023/07/03 09:39:23;;;;;;;10.85;5.93;;;22.70;99.90;;;;;;4991752;28;20200;-43
2023/07/03 09:41:49;;;;;;;10.13;5.38;;;22.50;99.90;;;;;;4982229;28;20202;-43
2023/07/03 09:44:17;;;;;;;14.27;5.60;;;22.40;99.90;;;;;;4974292;28;20234;-42
2023/07/03 09:46:45;;;;;;;9.23;5.07;;;22.40;99.90;;;;;;4965156;28;20190;-42
2023/07/03 09:49:16;;;;;;;11.07;5.20;;;22.70;99.90;;;;;;4992996;28;20211;-43
2023/07/03 09:51:42;;;;;;;11.02;5.10;;;22.80;99.90;;;;;;4970340;28;20279;-43
2023/07/03 09:54:18;;;;;;;12.98;5.55;;;22.90;99.90;;;;;;4974268;28;20215;-43
2023/07/03 09:56:44;;;;;;;9.35;5.63;;;23.00;99.90;;;;;;4972624;28;20190;-42
2023/07/03 09:59:13;;;;;;;10.52;5.28;;;23.20;99.90;;;;;;4965340;28;20274;-40
2023/07/03 10:01:39;;;;;;;13.48;5.70;;;23.40;99.90;;;;;;4985851;28;20187;-43
2023/07/03 10:04:13;;;;;;;14.15;5.78;;;23.40;99.90;;;;;;4990978;28;20198;-43
2023/07/03 10:06:50;;;;;;;13.13;5.95;;;23.30;99.90;;;;;;4986723;28;20189;-43
2023/07/03 10:09:25;;;;;;;10.68;5.22;;;23.40;99.90;;;;;;4986546;28;20260;-43
2023/07/03 10:12:00;;;;;;;11.45;5.43;;;23.20;99.90;;;;;;4998549;28;20279;-43
2023/07/03 10:14:49;;;;;;;10.13;5.65;;;23.50;99.90;;;;;;4973408;28;20191;-42
2023/07/03 10:17:17;;;;;;;7.75;4.40;;;23.40;99.90;;;;;;4979753;28;20211;-43
2023/07/03 10:19:50;;;;;;;9.73;5.05;;;23.10;99.90;;;;;;4973802;28;20192;-43
2023/07/03 10:22:17;;;;;;;11.23;4.75;;;23.10;99.90;;;;;;4974792;28;20704;-42
2023/07/03 10:24:45;;;;;;;8.25;4.53;;;23.50;99.90;;;;;;4978705;28;20189;-42
2023/07/03 10:27:13;;;;;;;8.20;3.97;;;23.50;99.90;;;;;;4986153;28;20215;-42
2023/07/03 10:29:46;;;;;;;7.38;3.65;;;23.20;99.90;;;;;;4987279;28;20285;-43
2023/07/03 10:32:15;;;;;;;7.45;3.28;;;23.30;99.90;;;;;;4982592;28;20191;-43
2023/07/03 10:34:51;;;;;;;4.63;3.20;;;23.10;99.90;;;;;;5009116;28;20180;-43
2023/07/03 10:37:18;;;;;;;6.60;2.92;;;22.90;99.90;;;;;;4980260;28;20192;-43
2023/07/03 10:39:53;;;;;;;5.70;2.67;;;22.90;99.90;;;;;;4973293;28;20265;-42
2023/07/03 10:42:31;;;;;;;4.93;2.70;;;23.00;99.90;;;;;;4986283;28;20208;-43
2023/07/03 10:45:12;;;;;;;5.20;2.58;;;23.20;99.90;;;;;;5014523;28;20187;-43
2023/07/03 10:48:09;;;;;;;4.03;2.55;;;23.10;99.90;;;;;;4995325;28;20202;-42
2023/07/03 10:50:54;;;;;;;5.90;2.97;;;23.20;99.90;;;;;;4980784;28;20184;-43
2023/07/03 10:53:23;;;;;;;4.25;2.97;;;23.30;99.90;;;;;;4966639;28;20176;-43
2023/07/03 10:56:02;;;;;;;6.82;2.90;;;23.40;99.90;;;;;;4981123;28;20180;-43
2023/07/03 10:58:58;;;;;;;7.00;3.45;;;23.50;99.90;;;;;;4980623;28;20204;-42
2023/07/03 11:01:57;;;;;;;4.10;2.83;;;23.90;99.90;;;;;;5008514;28;20179;-43
2023/07/03 11:04:48;;;;;;;6.13;2.72;;;24.20;99.90;;;;;;4972177;28;20212;-43
2023/07/03 11:07:37;;;;;;;4.25;2.97;;;24.30;99.90;;;;;;4984254;28;20206;-43
2023/07/03 11:10:06;;;;;;;4.70;2.80;;;24.30;99.90;;;;;;4967552;28;20215;-39
2023/07/03 11:12:57;;;;;;;4.72;2.97;;;24.10;99.90;;;;;;4974065;28;20273;-43
2023/07/03 11:15:48;;;;;;;4.22;2.45;;;23.70;99.90;;;;;;4988602;28;20195;-43
2023/07/03 11:18:51;;;;;;;5.63;2.47;;;23.60;99.90;;;;;;4990306;28;20226;-42
2023/07/03 11:21:17;;;;;;;3.45;2.35;;;23.50;99.90;;;;;;4973566;28;20195;-43
2023/07/03 11:24:10;;;;;;;5.28;2.97;;;23.60;99.90;;;;;;4975903;28;20189;-42
2023/07/03 11:26:42;;;;;;;4.90;3.03;;;23.80;99.90;;;;;;4970715;28;20396;-43
2023/07/03 11:29:13;;;;;;;6.40;2.80;;;23.90;99.90;;;;;;4981748;28;20206;-43
2023/07/03 11:31:42;;;;;;;6.28;3.00;;;23.90;99.90;;;;;;4976344;28;20272;-43
2023/07/03 11:34:11;;;;;;;6.45;3.13;;;23.90;99.90;;;;;;4976660;28;20187;-43
2023/07/03 11:36:44;;;;;;;4.10;2.42;;;24.00;99.90;;;;;;4980448;28;20184;-43
2023/07/03 11:39:24;;;;;;;5.82;3.22;;;24.10;99.90;;;;;;4993723;28;20258;-43
2023/07/03 11:41:57;;;;;;;5.20;3.15;;;24.10;99.90;;;;;;4973550;28;20189;-43
2023/07/03 11:44:41;;;;;;;4.80;2.78;;;24.00;99.90;;;;;;5000574;28;20192;-42
2023/07/03 11:47:12;;;;;;;3.13;2.42;;;23.80;99.90;;;;;;4991728;28;20293;-38
2023/07/03 11:49:53;;;;;;;4.22;2.97;;;23.80;99.90;;;;;;5004059;28;20214;-43
2023/07/03 11:52:31;;;;;;;3.97;2.67;;;24.00;99.90;;;;;;5002628;28;20180;-44
2023/07/03 11:55:13;;;;;;;4.25;2.97;;;24.60;99.90;;;;;;4981911;28;20211;-43
2023/07/03 11:57:45;;;;;;;4.13;2.83;;;25.10;99.90;;;;;;4983234;28;20200;-42
2023/07/03 12:00:27;;;;;;;5.53;2.90;;;25.60;99.90;;;;;;4988417;28;20650;-44
2023/07/03 12:02:56;;;;;;;6.20;2.85;;;26.10;99.90;;;;;;4964918;28;20181;-43
2023/07/03 12:05:44;;;;;;;5.47;2.97;;;26.20;99.90;;;;;;4999700;28;20195;-44
2023/07/03 12:08:12;;;;;;;4.55;3.05;;;26.30;99.90;;;;;;4984992;28;20212;-43
2023/07/03 12:10:42;;;;;;;3.95;2.53;;;26.20;99.90;;;;;;4969902;28;20185;-43
2023/07/03 12:13:41;;;;;;;6.65;3.08;;;25.70;99.90;;;;;;5001801;28;20187;-43
2023/07/03 12:16:19;;;;;;;5.40;2.92;;;25.50;99.90;;;;;;4946757;28;20216;-44
2023/07/03 12:18:54;;;;;;;3.92;2.67;;;25.60;99.90;;;;;;4974090;28;20200;-44
2023/07/03 12:21:21;;;;;;;4.60;2.88;;;25.50;99.90;;;;;;4985896;28;20186;-42
2023/07/03 12:23:48;;;;;;;4.70;2.72;;;25.50;99.90;;;;;;4989973;28;20187;-43
2023/07/03 12:26:16;;;;;;;5.90;2.97;;;25.60;99.90;;;;;;5007691;28;20186;-43
2023/07/03 12:28:43;;;;;;;3.65;2.78;;;25.50;99.90;;;;;;4991672;28;20200;-42
2023/07/03 12:31:21;;;;;;;6.55;3.20;;;25.20;99.90;;;;;;4974990;28;20207;-43
2023/07/03 12:33:57;;;;;;;5.32;3.05;;;25.10;99.90;;;;;;4964818;28;20258;-43
2023/07/03 12:36:30;;;;;;;3.33;2.80;;;25.20;99.90;;;;;;4997303;28;20195;-43
2023/07/03 12:38:59;;;;;;;4.80;3.40;;;25.10;99.90;;;;;;4993451;28;20242;-43
2023/07/03 12:41:31;;;;;;;5.68;3.22;;;24.90;99.90;;;;;;4993943;28;20222;-41
2023/07/03 12:43:59;;;;;;;3.92;2.92;;;25.20;99.90;;;;;;4990854;28;20180;-43
2023/07/03 12:46:31;;;;;;;4.72;3.15;;;25.10;99.90;;;;;;4992477;28;20192;-43
2023/07/03 12:49:17;;;;;;;5.30;3.00;;;25.00;99.90;;;;;;5000429;28;20207;-43